Time;durP1;ratioP1;P1;durP2;ratioP2;P2;SDS_P1;SDS_P2;PMS_P1;PMS_P2;Temp;Humidity;BMP_temperature;BMP_pressure;BME280_temperature;BME280_humidity;BME280_pressure;Samples;Min_cycle;Max_cycle;Signal;HPM_P1;HPM_P2
2023/05/14 00:09:06;;;;;;;4.63;4.20;;;;;;;13.56;79.91;99211.28;7511643;38;21053;31
2023/05/14 00:19:30;;;;;;;4.83;4.30;;;;;;;13.32;80.47;99212.41;7511077;38;21233;31
2023/05/14 00:25:06;;;;;;;4.37;3.93;;;;;;;13.38;80.28;99211.62;7460396;39;21145;31
2023/05/14 00:35:28;;;;;;;4.60;4.00;;;;;;;13.41;79.84;99202.31;7439471;39;20274;31
2023/05/14 00:41:05;;;;;;;5.10;3.90;;;;;;;13.47;79.75;99197.00;7420836;39;20262;31
2023/05/14 00:46:37;;;;;;;4.10;3.75;;;;;;;13.58;79.31;99206.53;7409290;39;20326;31
2023/05/14 00:57:15;;;;;;;5.90;4.07;;;;;;;13.59;79.58;99188.44;7422878;39;20344;31
2023/05/14 01:07:54;;;;;;;3.80;3.50;;;;;;;13.69;79.94;99191.72;7438464;38;20269;31
2023/05/14 01:13:25;;;;;;;4.10;3.67;;;;;;;13.77;79.04;99183.50;7439937;39;21224;31
2023/05/14 01:18:57;;;;;;;3.70;3.00;;;;;;;13.80;78.88;99180.41;7419963;39;20281;31
2023/05/14 01:24:30;;;;;;;4.60;3.50;;;;;;;13.78;79.17;99182.44;7395306;39;20247;31
2023/05/14 01:30:03;;;;;;;4.35;3.20;;;;;;;13.75;78.94;99177.41;7430035;39;20267;31
2023/05/14 01:35:35;;;;;;;4.27;3.00;;;;;;;13.77;79.15;99172.66;7399469;39;20321;31
2023/05/14 01:41:08;;;;;;;4.10;3.35;;;;;;;13.87;79.09;99179.44;7351317;39;20421;31
2023/05/14 01:51:44;;;;;;;3.17;2.87;;;;;;;13.90;78.40;99170.13;7378287;39;20411;31
2023/05/14 02:02:58;;;;;;;2.90;2.70;;;;;;;13.87;79.06;99160.47;7467339;39;20292;31
2023/05/14 02:08:35;;;;;;;3.90;2.90;;;;;;;13.75;78.62;99153.03;7461394;39;20336;31
2023/05/14 02:13:55;;;;;;;4.03;3.00;;;;;;;13.61;78.19;99167.41;7444581;39;20389;31
2023/05/14 02:19:31;;;;;;;3.40;3.10;;;;;;;13.53;78.71;99165.63;7492073;38;20229;31
2023/05/14 02:25:04;;;;;;;3.30;3.00;;;;;;;13.47;79.65;99166.41;7398806;39;20246;31
2023/05/14 02:30:24;;;;;;;3.70;3.15;;;;;;;13.38;80.19;99170.22;7443742;39;20257;31
2023/05/14 02:36:00;;;;;;;5.10;2.90;;;;;;;13.31;79.54;99171.97;7443144;39;20246;31
2023/05/14 02:41:36;;;;;;;3.70;3.40;;;;;;;13.30;79.74;99175.69;7425957;39;21263;31
2023/05/14 02:46:56;;;;;;;4.67;3.30;;;;;;;13.33;80.09;99180.75;7441705;39;20344;31
2023/05/14 02:52:32;;;;;;;3.30;3.00;;;;;;;13.36;80.36;99175.81;7402884;39;20239;31
2023/05/14 02:58:09;;;;;;;3.87;3.47;;;;;;;13.39;80.90;99158.34;7407303;39;21190;31
2023/05/14 03:03:43;;;;;;;4.70;3.50;;;;;;;13.41;79.75;99170.69;7397289;39;20287;31
2023/05/14 03:14:20;;;;;;;6.60;3.80;;;;;;;13.48;80.78;99173.47;7422686;39;20354;31
2023/05/14 03:24:56;;;;;;;4.37;3.70;;;;;;;13.54;79.99;99170.87;7422418;39;20248;31
2023/05/14 03:35:33;;;;;;;5.67;3.67;;;;;;;13.40;80.20;99166.28;7428559;39;20460;31
2023/05/14 03:40:51;;;;;;;4.70;4.20;;;;;;;13.38;79.89;99167.50;7467026;39;20238;31
2023/05/14 03:46:12;;;;;;;4.97;3.53;;;;;;;13.30;80.48;99159.44;7464039;39;20401;31
2023/05/14 03:51:43;;;;;;;4.00;3.60;;;;;;;13.23;80.53;99163.94;7425560;39;21257;31
2023/05/14 03:57:04;;;;;;;4.30;3.90;;;;;;;13.24;80.29;99160.19;7487377;39;21159;31
2023/05/14 04:02:39;;;;;;;5.40;3.60;;;;;;;13.34;80.48;99164.31;7421784;39;21182;31
2023/05/14 04:13:19;;;;;;;5.17;4.13;;;;;;;13.20;79.40;99162.44;7461002;39;20296;31
2023/05/14 04:18:40;;;;;;;4.40;4.00;;;;;;;13.21;79.82;99160.59;7490528;39;20253;31
2023/05/14 04:24:01;;;;;;;5.25;3.75;;;;;;;13.23;79.88;99156.66;7469017;39;20237;31
2023/05/14 04:29:36;;;;;;;3.83;3.47;;;;;;;13.23;79.70;99153.94;7470145;39;20312;31
2023/05/14 04:34:57;;;;;;;4.03;3.30;;;;;;;13.31;79.92;99150.31;7489759;38;20343;31
2023/05/14 04:40:18;;;;;;;3.90;3.50;;;;;;;13.23;79.71;99159.34;7487052;39;20233;31
2023/05/14 04:45:52;;;;;;;7.95;3.70;;;;;;;13.19;80.36;99160.75;7417487;39;20243;31
2023/05/14 04:56:14;;;;;;;3.80;3.33;;;;;;;13.43;79.91;99174.03;7401102;39;20361;31
2023/05/14 05:01:51;;;;;;;6.03;4.07;;;;;;;13.39;79.45;99170.00;7453152;39;20223;31
2023/05/14 05:07:09;;;;;;;6.80;3.80;;;;;;;13.44;79.85;99178.41;7441573;39;20349;31
2023/05/14 05:12:29;;;;;;;3.80;3.40;;;;;;;13.40;80.33;99182.53;7379689;39;21271;31
2023/05/14 05:18:00;;;;;;;3.70;3.40;;;;;;;13.41;81.26;99186.09;7378996;39;20345;31
2023/05/14 05:23:17;;;;;;;4.68;3.90;;;;;;;13.54;80.05;99184.41;7347128;39;20287;31
2023/05/14 05:28:35;;;;;;;4.97;3.90;;;;;;;13.48;80.38;99178.87;7371400;39;21173;31
2023/05/14 05:34:11;;;;;;;4.15;3.70;;;;;;;13.40;81.92;99187.09;7387332;39;20326;31
2023/05/14 05:40:00;;;;;;;4.40;4.00;;;;;;;13.43;81.59;99189.44;7404307;39;20251;31
2023/05/14 05:45:32;;;;;;;5.20;3.63;;;;;;;13.65;80.67;99187.66;7193571;39;21091;31
2023/05/14 05:51:08;;;;;;;4.47;4.07;;;;;;;13.66;81.06;99184.78;7443590;39;20323;31
2023/05/14 05:56:25;;;;;;;8.00;4.50;;;;;;;13.76;80.53;99181.81;7403359;39;20238;31
2023/05/14 06:01:43;;;;;;;5.03;4.50;;;;;;;13.78;79.84;99179.72;7379787;39;21165;31
2023/05/14 06:07:18;;;;;;;5.00;4.50;;;;;;;13.87;80.49;99173.19;7399802;39;20388;31
2023/05/14 06:12:35;;;;;;;7.15;5.00;;;;;;;13.94;80.09;99184.97;7406715;39;20270;31
2023/05/14 06:17:55;;;;;;;5.60;4.97;;;;;;;13.95;80.30;99192.06;7443797;39;20239;31
2023/05/14 06:23:28;;;;;;;7.53;5.30;;;;;;;13.83;81.24;99182.72;7380629;39;20334;31
2023/05/14 06:29:04;;;;;;;5.90;4.43;;;;;;;13.87;81.10;99182.16;7419428;39;20277;31
2023/05/14 06:34:21;;;;;;;5.50;5.00;;;;;;;14.00;80.32;99192.31;7424795;39;20273;31
2023/05/14 06:39:52;;;;;;;5.70;4.70;;;;;;;14.05;80.57;99189.91;7379880;39;20240;31
2023/05/14 06:45:10;;;;;;;5.75;5.15;;;;;;;14.13;80.73;99181.66;7381911;39;21276;31
2023/05/14 06:50:30;;;;;;;6.55;5.85;;;;;;;14.21;79.89;99184.28;7414829;39;20473;31
2023/05/14 06:56:04;;;;;;;5.80;5.27;;;;;;;14.26;79.78;99179.09;7482836;38;20330;31
2023/05/14 07:06:25;;;;;;;6.23;5.50;;;;;;;14.47;79.33;99175.63;7424717;39;20413;31
2023/05/14 07:11:59;;;;;;;6.03;5.43;;;;;;;14.59;79.15;99178.69;7440993;39;21162;31
2023/05/14 07:17:19;;;;;;;6.07;5.40;;;;;;;14.65;78.38;99176.03;7417997;39;20242;31
2023/05/14 07:22:39;;;;;;;6.27;5.60;;;;;;;14.76;78.24;99171.97;7449067;39;20239;31
2023/05/14 07:28:15;;;;;;;6.53;5.40;;;;;;;15.06;77.06;99168.06;7448595;39;20430;31
2023/05/14 07:33:32;;;;;;;6.27;5.63;;;;;;;15.17;75.79;99155.84;7443504;39;20330;31
2023/05/14 07:39:07;;;;;;;6.87;4.93;;;;;;;15.75;74.65;99152.69;7441427;39;20341;31
2023/05/14 07:44:41;;;;;;;6.60;5.00;;;;;;;15.89;73.69;99145.44;7399355;39;21217;31
2023/05/14 07:50:14;;;;;;;5.07;4.53;;;;;;;16.41;70.82;99133.09;7411904;39;20263;31
2023/05/14 07:55:30;;;;;;;5.05;4.55;;;;;;;16.64;70.43;99131.69;7358361;39;21194;31
2023/05/14 08:01:07;;;;;;;5.35;4.75;;;;;;;16.80;66.77;99124.19;7394343;39;21341;31
2023/05/14 08:06:37;;;;;;;5.85;4.70;;;;;;;16.92;68.12;99115.19;7394201;39;20510;31
2023/05/14 08:11:54;;;;;;;6.23;5.03;;;;;;;17.24;67.73;99110.78;7392627;39;21267;31
2023/05/14 08:17:31;;;;;;;5.03;4.53;;;;;;;17.49;64.17;99100.88;7420155;39;20238;31
2023/05/14 08:23:03;;;;;;;5.70;4.70;;;;;;;17.73;65.44;99106.69;7404595;39;20251;31
2023/05/14 08:28:20;;;;;;;4.50;4.10;;;;;;;17.96;64.09;99107.88;7424098;39;21410;31
2023/05/14 08:33:57;;;;;;;4.70;3.97;;;;;;;18.12;63.30;99097.53;7416633;39;20305;31
2023/05/14 08:39:14;;;;;;;5.30;4.00;;;;;;;18.20;62.73;99092.66;7365444;39;21269;31
2023/05/14 08:44:46;;;;;;;4.00;3.60;;;;;;;18.41;61.53;99099.69;7380374;39;20258;31
2023/05/14 08:50:21;;;;;;;6.47;3.80;;;;;;;18.53;58.73;99089.75;7398154;39;20379;31
2023/05/14 08:55:55;;;;;;;3.33;3.00;;;;;;;18.69;59.97;99086.47;7394011;39;21257;31
2023/05/14 09:06:47;;;;;;;3.20;2.90;;;;;;;19.05;57.45;99087.66;7433000;39;20638;31
2023/05/14 09:12:22;;;;;;;2.60;2.25;;;;;;;19.11;53.88;99073.13;7396880;39;21418;31
2023/05/14 09:17:55;;;;;;;5.43;2.70;;;;;;;19.37;56.12;99076.44;7388942;39;21725;31
2023/05/14 09:23:28;;;;;;;5.15;2.80;;;;;;;19.32;53.90;99070.78;7442082;39;20354;31
2023/05/14 09:29:00;;;;;;;4.27;2.90;;;;;;;19.48;54.83;99076.78;7466132;39;20238;31
2023/05/14 09:34:37;;;;;;;3.67;3.10;;;;;;;19.73;55.13;99072.91;7454130;39;21805;31
2023/05/14 09:40:26;;;;;;;3.25;2.90;;;;;;;20.07;54.97;99068.69;7484858;38;21205;31
2023/05/14 09:51:01;;;;;;;3.75;3.45;;;;;;;19.78;54.95;99080.44;7459984;39;20286;31
2023/05/14 09:56:35;;;;;;;3.63;3.33;;;;;;;19.94;54.54;99057.91;7400365;39;21364;31
2023/05/14 10:02:06;;;;;;;5.03;3.60;;;;;;;20.28;54.53;99070.06;7464190;39;21294;31
2023/05/14 10:07:38;;;;;;;4.40;4.00;;;;;;;20.35;55.27;99064.56;7364778;39;21339;31
2023/05/14 10:18:15;;;;;;;4.53;4.00;;;;;;;20.14;56.04;99063.13;7464082;39;20274;31
2023/05/14 10:23:51;;;;;;;4.10;3.63;;;;;;;20.16;54.35;99059.09;7479349;38;20237;31
2023/05/14 10:29:25;;;;;;;3.40;3.10;;;;;;;19.77;53.98;99060.44;7450426;39;20674;31
2023/05/14 10:34:58;;;;;;;3.80;3.40;;;;;;;19.68;53.02;99061.81;7420646;39;21331;31
2023/05/14 10:40:30;;;;;;;3.87;3.45;;;;;;;19.58;53.24;99069.69;7422268;39;21322;31
2023/05/14 10:46:05;;;;;;;3.37;3.08;;;;;;;19.64;54.90;99060.59;7399763;39;21606;31
2023/05/14 10:51:38;;;;;;;3.07;2.70;;;;;;;19.54;53.08;99065.75;7389401;39;21693;31
2023/05/14 10:57:13;;;;;;;3.10;2.80;;;;;;;19.54;54.03;99056.72;7466335;39;21603;31
2023/05/14 11:02:49;;;;;;;3.60;2.90;;;;;;;19.66;53.53;99052.16;7398981;39;21505;31
2023/05/14 11:08:22;;;;;;;3.20;2.90;;;;;;;19.58;54.86;99042.34;7468569;39;21388;31
2023/05/14 11:13:58;;;;;;;3.30;3.00;;;;;;;19.74;53.83;99047.22;7440845;39;21318;31
2023/05/14 11:24:35;;;;;;;4.83;2.97;;;;;;;19.56;55.50;99033.56;7421316;39;20655;31
2023/05/14 11:30:10;;;;;;;3.22;2.92;;;;;;;19.49;55.05;99035.53;7380568;39;21718;31
2023/05/14 11:35:45;;;;;;;4.20;3.40;;;;;;;19.47;55.54;99029.47;7358186;39;20240;31
2023/05/14 11:41:19;;;;;;;5.40;3.30;;;;;;;19.46;56.13;99032.41;7379733;39;20353;31
2023/05/14 11:46:35;;;;;;;3.90;3.00;;;;;;;19.44;54.53;99032.63;7409322;39;20257;31
2023/05/14 11:52:09;;;;;;;3.80;3.50;;;;;;;19.49;54.62;99029.22;7422432;39;21814;31
2023/05/14 11:57:44;;;;;;;3.87;3.10;;;;;;;19.30;56.28;99026.47;7419876;39;21216;31
2023/05/14 12:03:21;;;;;;;3.77;3.47;;;;;;;19.03;56.32;99027.81;7420325;39;21306;31
2023/05/14 12:08:49;;;;;;;3.83;3.43;;;;;;;18.87;56.47;99029.19;7430928;39;21193;31
2023/05/14 12:14:28;;;;;;;5.50;3.13;;;;;;;18.69;56.65;99026.41;7187932;39;20219;31
2023/05/14 12:20:00;;;;;;;3.30;3.00;;;;;;;18.55;56.04;99015.84;7440900;39;20246;31
2023/05/14 12:25:32;;;;;;;4.47;3.70;;;;;;;18.46;57.46;99017.97;7477012;39;21427;31
2023/05/14 12:31:05;;;;;;;4.93;3.70;;;;;;;18.51;58.78;99006.38;7380467;39;21723;31
2023/05/14 12:36:37;;;;;;;4.53;3.30;;;;;;;19.22;56.99;98999.41;7357310;39;21247;31
2023/05/14 12:42:09;;;;;;;3.83;3.50;;;;;;;19.72;56.00;98993.81;7379620;39;21206;31
2023/05/14 12:47:43;;;;;;;5.10;3.40;;;;;;;19.86;55.31;98991.72;7379808;39;20318;31
2023/05/14 12:58:19;;;;;;;4.60;3.33;;;;;;;19.88;55.02;98975.94;7378397;39;20423;31
2023/05/14 13:03:55;;;;;;;3.33;2.97;;;;;;;20.30;53.75;98969.44;7406461;39;20280;31
2023/05/14 13:14:19;;;;;;;3.50;2.80;;;;;;;20.79;51.35;98950.91;7399130;39;20255;31
2023/05/14 13:19:56;;;;;;;3.00;2.70;;;;;;;20.88;49.24;98939.34;7426505;39;20254;31
2023/05/14 13:25:31;;;;;;;3.20;2.90;;;;;;;21.03;51.31;98933.37;7445287;39;21461;31
2023/05/14 13:31:17;;;;;;;3.30;3.00;;;;;;;21.22;51.22;98925.87;7418620;39;20358;31
2023/05/14 13:36:54;;;;;;;3.25;2.90;;;;;;;21.25;49.88;98925.38;7425439;39;20428;31
2023/05/14 13:42:11;;;;;;;4.53;2.63;;;;;;;21.31;50.49;98908.78;7421536;39;20856;31
2023/05/14 13:47:46;;;;;;;2.40;2.20;;;;;;;20.94;50.01;98899.19;7477454;38;20320;31
2023/05/14 13:53:22;;;;;;;3.35;2.62;;;;;;;20.75;50.24;98905.88;7511484;38;20256;31
2023/05/14 13:58:57;;;;;;;3.13;2.67;;;;;;;20.54;51.12;98899.91;7422580;39;20341;31
2023/05/14 14:04:15;;;;;;;2.60;2.40;;;;;;;20.33;51.25;98891.47;7358535;39;20233;31
2023/05/14 14:09:48;;;;;;;3.43;2.60;;;;;;;20.35;52.17;98883.84;7401549;39;21194;31
2023/05/14 14:15:07;;;;;;;4.80;2.70;;;;;;;20.30;51.55;98879.09;7396292;39;21264;31
2023/05/14 14:25:45;;;;;;;3.30;2.67;;;;;;;20.66;50.35;98876.12;7482523;39;20274;31
2023/05/14 14:31:17;;;;;;;2.50;2.30;;;;;;;20.82;48.28;98873.72;7398841;39;20345;31
2023/05/14 14:36:52;;;;;;;2.78;2.58;;;;;;;20.84;49.55;98860.63;7429097;39;20286;31
2023/05/14 14:42:25;;;;;;;2.80;2.60;;;;;;;21.14;50.47;98853.06;7398598;39;21438;31
2023/05/14 14:48:01;;;;;;;3.22;2.53;;;;;;;21.15;50.13;98851.97;7398828;39;21226;31
2023/05/14 14:53:36;;;;;;;3.20;2.90;;;;;;;21.17;49.67;98858.06;7437726;39;21251;31
2023/05/14 15:04:13;;;;;;;2.65;2.45;;;;;;;21.16;48.02;98848.16;7420856;39;20255;31
2023/05/14 15:09:33;;;;;;;2.60;2.40;;;;;;;21.26;48.05;98847.53;7356683;39;21295;31
2023/05/14 15:14:53;;;;;;;3.20;2.67;;;;;;;21.31;47.93;98845.72;7370727;39;21402;31
2023/05/14 15:20:29;;;;;;;2.90;2.60;;;;;;;21.19;47.82;98839.47;7357191;39;21260;31
2023/05/14 15:31:06;;;;;;;3.90;2.13;;;;;;;20.96;46.60;98834.84;7446467;39;20293;31
2023/05/14 15:36:42;;;;;;;2.90;2.60;;;;;;;20.99;48.74;98841.75;7429110;39;21595;31
2023/05/14 15:42:18;;;;;;;3.15;2.20;;;;;;;20.63;48.58;98838.25;7443068;39;21306;31
2023/05/14 15:47:53;;;;;;;2.87;2.35;;;;;;;20.69;48.95;98837.28;7379163;39;20251;31
2023/05/14 15:53:27;;;;;;;2.70;2.50;;;;;;;20.66;48.94;98834.19;7377116;39;21316;31
2023/05/14 15:58:45;;;;;;;4.15;2.50;;;;;;;20.96;49.54;98831.28;7400340;39;21389;31
2023/05/14 16:04:17;;;;;;;3.20;2.40;;;;;;;21.03;49.87;98830.06;7385923;39;20258;31
2023/05/14 16:09:53;;;;;;;2.50;2.30;;;;;;;20.92;48.36;98827.34;7378596;39;21245;31
2023/05/14 16:20:16;;;;;;;3.33;2.40;;;;;;;21.05;48.53;98833.41;7394507;39;20320;31
2023/05/14 16:25:48;;;;;;;2.90;2.60;;;;;;;20.89;48.07;98827.81;7385989;39;20277;31
2023/05/14 16:31:09;;;;;;;2.80;2.40;;;;;;;21.02;47.65;98836.59;7394300;39;20248;31
2023/05/14 16:36:17;;;;;;;4.40;2.50;;;;;;;20.99;47.76;98830.78;7421423;39;20261;31
2023/05/14 16:41:52;;;;;;;3.83;2.37;;;;;;;20.91;48.28;98829.25;7363479;39;20366;31
2023/05/14 16:52:15;;;;;;;2.80;2.40;;;;;;;20.77;48.93;98825.13;7463156;39;20248;31
2023/05/14 16:57:50;;;;;;;3.25;2.67;;;;;;;20.60;49.91;98816.81;7470251;38;20281;31
2023/05/14 17:03:11;;;;;;;2.60;2.40;;;;;;;20.47;50.05;98822.53;7512753;38;20284;31
2023/05/14 17:08:42;;;;;;;3.27;2.73;;;;;;;20.25;50.69;98824.19;7441912;39;20361;31
2023/05/14 17:14:15;;;;;;;2.80;2.40;;;;;;;20.11;49.07;98825.47;7421152;39;20333;31
2023/05/14 17:19:36;;;;;;;3.10;2.30;;;;;;;19.96;50.10;98820.50;7468616;39;20220;31
2023/05/14 17:25:11;;;;;;;2.37;2.17;;;;;;;19.87;50.74;98824.66;7496007;38;20227;31
2023/05/14 17:30:47;;;;;;;3.40;2.63;;;;;;;19.81;51.14;98820.09;7490468;38;20253;31
2023/05/14 17:36:08;;;;;;;2.57;2.17;;;;;;;19.73;51.68;98828.66;7440085;39;21218;31
2023/05/14 17:46:46;;;;;;;3.05;2.30;;;;;;;19.57;51.61;98827.41;7419068;39;20391;31
2023/05/14 17:52:18;;;;;;;3.15;2.25;;;;;;;19.52;52.26;98838.22;7383484;39;20468;31
2023/05/14 17:57:51;;;;;;;2.50;2.30;;;;;;;19.45;52.90;98834.75;7437291;39;21395;31
2023/05/14 18:03:25;;;;;;;2.60;2.40;;;;;;;19.41;52.94;98840.88;7420265;39;21233;31
2023/05/14 18:14:05;;;;;;;2.90;2.10;;;;;;;19.17;54.67;98842.69;7496195;38;20272;31
2023/05/14 18:19:42;;;;;;;2.60;2.40;;;;;;;18.95;56.28;98845.06;7468284;38;20243;31
2023/05/14 18:25:18;;;;;;;2.80;2.50;;;;;;;18.77;56.21;98847.81;7489957;38;20238;31
2023/05/14 18:30:35;;;;;;;2.55;2.35;;;;;;;18.70;56.21;98866.16;7424358;39;21666;31
2023/05/14 18:36:07;;;;;;;2.50;2.30;;;;;;;18.55;56.57;98869.25;7401410;39;20246;31
2023/05/14 18:41:39;;;;;;;2.40;2.20;;;;;;;18.43;56.98;98862.81;7379026;39;21355;31
2023/05/14 18:47:11;;;;;;;3.90;2.28;;;;;;;18.24;57.46;98858.41;7352676;39;21314;31
2023/05/14 18:52:43;;;;;;;3.90;2.37;;;;;;;18.07;58.27;98863.59;7355937;39;21420;31
2023/05/14 18:58:19;;;;;;;3.80;3.20;;;;;;;17.98;59.17;98873.13;7376903;39;20783;31
2023/05/14 19:03:51;;;;;;;2.40;2.20;;;;;;;17.88;59.06;98884.50;7446464;39;20266;31
2023/05/14 19:09:28;;;;;;;5.83;2.70;;;;;;;17.85;58.43;98881.41;7464527;38;20778;31
2023/05/14 19:15:13;;;;;;;;;;;;;;;;;;;;;
2023/05/14 19:20:24;;;;;;;3.45;2.58;;;;;;;17.77;59.15;98895.31;7258740;39;21177;31
2023/05/14 19:26:00;;;;;;;3.20;2.60;;;;;;;17.66;59.27;98899.56;7489650;38;20861;31
2023/05/14 19:31:21;;;;;;;3.10;2.40;;;;;;;17.61;59.36;98904.81;7491100;38;20771;31
2023/05/14 19:36:53;;;;;;;3.30;2.40;;;;;;;17.48;59.87;98899.41;7464685;39;20736;31
2023/05/14 19:42:30;;;;;;;3.00;2.70;;;;;;;17.36;59.71;98896.56;7442851;39;21975;31
2023/05/14 19:47:50;;;;;;;2.80;2.60;;;;;;;17.34;59.19;98905.97;7400434;39;21396;31
2023/05/14 19:53:07;;;;;;;2.60;2.30;;;;;;;17.30;59.54;98897.41;7346129;39;20333;31
2023/05/14 19:58:40;;;;;;;2.57;2.37;;;;;;;17.12;60.65;98897.28;7359604;39;20762;31
2023/05/14 20:03:57;;;;;;;3.50;2.77;;;;;;;17.07;60.25;98900.66;7338935;39;20883;31
2023/05/14 20:09:32;;;;;;;2.87;2.50;;;;;;;17.02;60.82;98897.75;7352132;39;20805;31
2023/05/14 20:15:06;;;;;;;2.70;2.50;;;;;;;16.99;60.86;98903.63;7397702;39;21659;31
2023/05/14 20:20:39;;;;;;;2.90;2.60;;;;;;;16.93;60.95;98904.50;7421956;39;20332;31
2023/05/14 20:26:15;;;;;;;3.70;2.90;;;;;;;16.88;61.12;98912.47;7429868;39;20265;31
2023/05/14 20:31:48;;;;;;;3.10;2.60;;;;;;;16.81;61.57;98911.63;7419174;39;20380;31
2023/05/14 20:37:24;;;;;;;4.25;2.30;;;;;;;16.81;61.04;98900.75;7444826;39;20261;31
2023/05/14 20:43:00;;;;;;;2.90;2.60;;;;;;;16.78;62.19;98905.78;7398208;39;20593;31
2023/05/14 20:48:36;;;;;;;5.20;2.60;;;;;;;16.62;62.37;98891.59;7335929;39;21237;31
2023/05/14 20:54:08;;;;;;;4.73;2.50;;;;;;;16.60;61.98;98885.53;7331426;39;21596;31
2023/05/14 20:59:25;;;;;;;4.30;2.90;;;;;;;16.56;61.65;98880.69;7361741;39;21387;31
2023/05/14 21:04:59;;;;;;;2.70;2.30;;;;;;;16.44;62.28;98869.62;7371361;39;21673;31
2023/05/14 21:10:19;;;;;;;3.17;2.53;;;;;;;16.42;62.27;98873.59;7419256;39;20305;31
2023/05/14 21:15:51;;;;;;;2.40;2.20;;;;;;;16.43;62.14;98875.25;7424761;39;20493;31
2023/05/14 21:21:25;;;;;;;2.50;2.30;;;;;;;16.31;62.12;98871.53;7441297;39;22000;31
2023/05/14 21:26:57;;;;;;;2.40;2.15;;;;;;;16.22;62.23;98866.31;7377175;39;20236;31
2023/05/14 21:32:14;;;;;;;3.00;2.50;;;;;;;16.17;63.38;98866.09;7378588;39;21583;31
2023/05/14 21:37:51;;;;;;;2.80;2.25;;;;;;;16.13;63.19;98858.56;7401760;39;20325;31
2023/05/14 21:43:08;;;;;;;2.33;2.10;;;;;;;16.19;62.94;98853.09;7377200;39;20249;31
2023/05/14 21:48:29;;;;;;;2.80;2.30;;;;;;;16.15;62.77;98857.31;7358160;39;20243;31
2023/05/14 21:54:03;;;;;;;2.60;2.40;;;;;;;16.06;62.79;98864.00;7383415;39;21360;31
2023/05/14 21:59:23;;;;;;;2.47;2.27;;;;;;;16.02;63.58;98861.91;7414598;39;20345;31
2023/05/14 22:04:59;;;;;;;2.50;2.30;;;;;;;16.00;62.98;98858.56;7482972;38;20307;31
2023/05/14 22:10:35;;;;;;;2.80;2.50;;;;;;;15.92;64.01;98848.75;7462805;39;20250;31
2023/05/14 22:16:11;;;;;;;2.43;2.23;;;;;;;15.89;64.30;98845.59;7497842;38;20379;31
2023/05/14 22:21:32;;;;;;;2.60;2.40;;;;;;;15.84;64.63;98846.22;7468947;39;20308;31
2023/05/14 22:27:05;;;;;;;2.30;2.10;;;;;;;15.83;63.86;98841.84;7439501;39;21223;31
2023/05/14 22:32:40;;;;;;;4.05;2.50;;;;;;;15.86;64.05;98844.16;7425158;39;20293;31
2023/05/14 22:38:01;;;;;;;3.85;2.10;;;;;;;15.80;63.35;98841.44;7422798;39;20244;31
2023/05/14 22:43:36;;;;;;;2.70;2.50;;;;;;;15.69;64.05;98846.44;7421318;39;21226;31
2023/05/14 22:48:54;;;;;;;2.73;2.33;;;;;;;15.68;64.03;98846.66;7441585;39;20322;31
2023/05/14 22:54:14;;;;;;;2.40;2.20;;;;;;;15.60;64.25;98838.69;7386314;39;20290;31
2023/05/14 22:59:46;;;;;;;2.50;2.23;;;;;;;15.57;64.00;98837.25;7391888;39;21300;31
2023/05/14 23:05:21;;;;;;;4.20;2.37;;;;;;;15.52;64.68;98828.03;7401683;39;20238;31
2023/05/14 23:10:39;;;;;;;2.57;2.20;;;;;;;15.56;64.32;98829.28;7462227;39;20246;31
2023/05/14 23:16:14;;;;;;;4.20;2.40;;;;;;;15.45;64.59;98822.53;7438154;39;20319;31
2023/05/14 23:26:36;;;;;;;3.35;2.20;;;;;;;15.47;65.29;98819.63;7484289;39;20269;31
2023/05/14 23:37:13;;;;;;;3.90;2.20;;;;;;;15.42;66.07;98803.97;7424529;39;20277;31
2023/05/14 23:47:51;;;;;;;2.27;2.07;;;;;;;15.30;65.94;98787.44;7395910;39;20250;31
2023/05/14 23:53:23;;;;;;;3.70;2.23;;;;;;;15.23;66.39;98780.31;7420046;39;20262;31
2023/05/14 23:58:54;;;;;;;2.25;2.05;;;;;;;15.15;65.90;98777.81;7380144;39;20252;31
